createdAt,value
2018-11-12T00:01:10.250Z,100222.19
2018-11-12T00:03:42.530Z,100223.53
2018-11-12T00:06:16.525Z,100218.17
2018-11-12T00:08:50.448Z,100223.81
2018-11-12T00:11:24.715Z,100220.06
2018-11-12T00:13:57.616Z,100225.66
2018-11-12T00:16:30.696Z,100218.15
2018-11-12T00:19:02.153Z,100212.01
2018-11-12T00:21:37.642Z,100202.89
2018-11-12T00:24:08.824Z,100215.45
2018-11-12T00:26:42.234Z,100217.58
2018-11-12T00:29:16.244Z,100219.73
2018-11-12T00:31:49.655Z,100224.56
2018-11-12T00:34:22.945Z,100229.06
2018-11-12T00:36:56.663Z,100233.63
2018-11-12T00:39:32.474Z,100245.10
2018-11-12T00:42:05.928Z,100239.51
2018-11-12T00:44:39.010Z,100232.83
2018-11-12T00:47:10.198Z,100243.77
2018-11-12T00:49:44.807Z,100242.97
2018-11-12T00:52:18.213Z,100231.20
2018-11-12T00:54:51.811Z,100240.30
2018-11-12T00:57:25.049Z,100240.29
2018-11-12T00:59:57.939Z,100216.75
2018-11-12T01:02:32.751Z,100225.31
2018-11-12T01:05:05.483Z,100228.53
2018-11-12T01:07:37.953Z,100231.74
2018-11-12T01:10:14.554Z,100229.32
2018-11-12T01:12:48.522Z,100230.70
2018-11-12T01:15:18.984Z,100232.83
2018-11-12T01:17:50.833Z,100222.69
2018-11-12T01:20:25.337Z,100233.08
2018-11-12T01:22:59.073Z,100233.61
2018-11-12T01:25:33.203Z,100235.45
2018-11-12T01:28:06.566Z,100240.78
2018-11-12T01:30:39.914Z,100242.60
2018-11-12T01:33:15.368Z,100241.22
2018-11-12T01:35:50.255Z,100240.42
2018-11-12T01:38:24.842Z,100243.92
2018-11-12T01:40:58.897Z,100241.49
2018-11-12T01:43:34.662Z,100243.84
2018-11-12T01:46:06.340Z,100236.05
2018-11-12T01:48:39.398Z,100236.05
2018-11-12T01:51:15.263Z,100232.83
2018-11-12T01:53:48.794Z,100231.80
2018-11-12T01:56:22.722Z,100226.68
2018-11-12T01:58:56.595Z,100227.45
2018-11-12T02:01:30.818Z,100220.77
2018-11-12T02:04:04.231Z,100224.23
2018-11-12T02:06:36.935Z,100222.38
2018-11-12T02:09:15.024Z,100215.23
2018-11-12T02:11:48.308Z,100226.93
2018-11-12T02:14:22.414Z,100221.93
2018-11-12T02:16:59.671Z,100223.27
2018-11-12T02:19:32.530Z,100224.67
2018-11-12T02:22:07.283Z,100232.93
2018-11-12T02:24:40.598Z,100228.41
2018-11-12T02:27:13.745Z,100225.17
2018-11-12T02:29:48.968Z,100217.95
2018-11-12T02:32:23.702Z,100215.81
2018-11-12T02:34:59.100Z,100218.21
2018-11-12T02:37:31.871Z,100220.34
2018-11-12T02:40:07.052Z,100229.33
2018-11-12T02:42:42.148Z,100224.47
2018-11-12T02:45:16.029Z,100225.53
2018-11-12T02:47:50.805Z,100236.12
2018-11-12T02:50:25.248Z,100236.86
2018-11-12T02:52:58.316Z,100240.02
2018-11-12T02:55:32.266Z,100240.25
2018-11-12T02:58:06.231Z,100243.13
2018-11-12T03:00:41.494Z,100242.00
2018-11-12T03:03:15.230Z,100244.05
2018-11-12T03:05:48.323Z,100237.74
2018-11-12T03:08:22.793Z,100243.80
2018-11-12T03:10:58.068Z,100244.84
2018-11-12T03:13:33.917Z,100239.70
2018-11-12T03:16:07.842Z,100240.11
2018-11-12T03:18:42.200Z,100238.11
2018-11-12T03:21:14.935Z,100245.23
2018-11-12T03:23:48.150Z,100241.70
2018-11-12T03:26:22.642Z,100235.27
2018-11-12T03:28:55.891Z,100227.55
2018-11-12T03:31:30.007Z,100225.78
2018-11-12T03:34:02.947Z,100236.11
2018-11-12T03:36:35.770Z,100227.09
2018-11-12T03:39:12.227Z,100229.93
2018-11-12T03:41:46.470Z,100234.28
2018-11-12T03:44:20.976Z,100228.12
2018-11-12T03:46:56.075Z,100233.96
2018-11-12T03:49:29.725Z,100230.96
2018-11-12T03:52:04.341Z,100236.67
2018-11-12T03:54:38.080Z,100233.96
2018-11-12T03:57:12.577Z,100231.91
2018-11-12T03:59:46.821Z,100231.42
2018-11-12T04:02:19.656Z,100234.64
2018-11-12T04:04:52.921Z,100236.19
2018-11-12T04:07:24.013Z,100243.56
2018-11-12T04:09:58.488Z,100247.84
2018-11-12T04:12:31.750Z,100249.91
2018-11-12T04:15:05.724Z,100241.03
2018-11-12T04:17:39.142Z,100243.45
2018-11-12T04:20:15.672Z,100244.67
2018-11-12T04:23:02.656Z,100249.48
2018-11-12T04:25:38.349Z,100255.44
2018-11-12T04:28:11.105Z,100256.02
2018-11-12T04:30:45.614Z,100257.58
2018-11-12T04:33:20.143Z,100258.78
2018-11-12T04:35:53.524Z,100266.33
2018-11-12T04:38:26.782Z,100264.27
2018-11-12T04:40:59.470Z,100265.35
2018-11-12T04:43:34.339Z,100265.36
2018-11-12T04:46:07.777Z,100270.45
2018-11-12T04:48:41.692Z,100272.03
2018-11-12T04:51:16.647Z,100272.56
2018-11-12T04:53:49.397Z,100278.96
2018-11-12T04:56:25.374Z,100276.28
2018-11-12T04:59:00.490Z,100278.47
2018-11-12T05:01:33.037Z,100282.73
2018-11-12T05:04:05.718Z,100280.08
2018-11-12T05:06:40.184Z,100287.07
2018-11-12T05:09:14.319Z,100285.75
2018-11-12T05:11:48.901Z,100282.53
2018-11-12T05:14:24.760Z,100287.39
2018-11-12T05:16:58.763Z,100282.84
2018-11-12T05:19:33.331Z,100285.81
2018-11-12T05:22:07.158Z,100281.27
2018-11-12T05:24:41.808Z,100285.02
2018-11-12T05:27:15.489Z,100277.26
2018-11-12T05:29:48.558Z,100282.34
2018-11-12T05:32:24.079Z,100287.45
2018-11-12T05:34:57.132Z,100285.03
2018-11-12T05:37:32.050Z,100288.25
2018-11-12T05:40:03.654Z,100288.25
2018-11-12T05:42:37.686Z,100295.48
2018-11-12T05:45:12.026Z,100303.50
2018-11-12T05:47:47.053Z,100306.17
2018-11-12T05:50:22.321Z,100300.86
2018-11-12T05:52:58.326Z,100297.36
2018-11-12T05:55:32.603Z,100301.11
2018-11-12T05:58:06.094Z,100292.55
2018-11-12T06:00:40.588Z,100289.61
2018-11-12T06:03:13.396Z,100287.19
2018-11-12T06:05:47.296Z,100286.68
2018-11-12T06:08:20.882Z,100296.55
2018-11-12T06:10:54.994Z,100296.59
2018-11-12T06:13:29.635Z,100300.59
2018-11-12T06:16:02.280Z,100305.14
2018-11-12T06:18:35.686Z,100302.47
2018-11-12T06:21:09.250Z,100315.31
2018-11-12T06:23:42.329Z,100315.56
2018-11-12T06:26:18.210Z,100315.82
2018-11-12T06:28:49.696Z,100320.66
2018-11-12T06:31:24.603Z,100315.85
2018-11-12T06:33:58.049Z,100326.27
2018-11-12T06:36:31.228Z,100326.27
2018-11-12T06:39:02.515Z,100335.37
2018-11-12T06:41:37.934Z,100331.61
2018-11-12T06:44:12.754Z,100331.35
2018-11-12T06:46:47.864Z,100336.45
2018-11-12T06:49:19.701Z,100334.02
2018-11-12T06:51:52.411Z,100347.16
2018-11-12T06:54:24.967Z,100351.96
2018-11-12T06:57:03.050Z,100361.88
2018-11-12T06:59:37.162Z,100361.33
2018-11-12T07:02:11.460Z,100358.65
2018-11-12T07:04:45.039Z,100365.63
2018-11-12T07:07:19.587Z,100366.97
2018-11-12T07:09:52.797Z,100374.71
2018-11-12T07:12:27.471Z,100374.71
2018-11-12T07:15:00.832Z,100378.47
2018-11-12T07:17:35.323Z,100376.59
2018-11-12T07:20:08.142Z,100383.03
2018-11-12T07:22:43.017Z,100381.95
2018-11-12T07:25:16.136Z,100398.30
2018-11-12T07:27:50.849Z,100387.59
2018-11-12T07:30:25.789Z,100389.72
2018-11-12T07:32:59.208Z,100383.57
2018-11-12T07:35:32.521Z,100393.48
2018-11-12T07:38:07.337Z,100394.53
2018-11-12T07:40:42.185Z,100402.02
2018-11-12T07:43:15.457Z,100415.69
2018-11-12T07:45:49.123Z,100403.64
2018-11-12T07:48:22.246Z,100408.71
2018-11-12T07:50:56.631Z,100389.44
2018-11-12T07:53:31.999Z,100392.94
2018-11-12T07:56:05.277Z,100391.31
2018-11-12T07:58:39.166Z,100406.86
2018-11-12T08:01:13.384Z,100408.73
2018-11-12T08:03:49.251Z,100415.16
2018-11-12T08:06:23.163Z,100407.65
2018-11-12T08:08:56.411Z,100413.28
2018-11-12T08:11:30.336Z,100413.30
2018-11-12T08:14:04.621Z,100411.95
2018-11-12T08:16:39.642Z,100407.13
2018-11-12T08:19:13.509Z,100400.95
2018-11-12T08:21:48.608Z,100395.33
2018-11-12T08:24:22.646Z,100399.61
2018-11-12T08:26:58.075Z,100396.16
2018-11-12T08:29:33.309Z,100401.77
2018-11-12T08:32:09.386Z,100402.84
2018-11-12T08:34:43.858Z,100389.16
2018-11-12T08:37:17.753Z,100400.69
2018-11-12T08:39:51.557Z,100400.45
2018-11-12T08:42:25.526Z,100398.55
2018-11-12T08:44:59.521Z,100393.99
2018-11-12T08:47:34.182Z,100404.98
2018-11-12T08:50:11.012Z,100402.84
2018-11-12T08:52:46.360Z,100391.05
2018-11-12T08:55:22.165Z,100398.54
2018-11-12T08:57:56.813Z,100384.36
2018-11-12T09:00:31.476Z,100401.50
2018-11-12T09:03:06.316Z,100381.42
2018-11-12T09:05:40.827Z,100374.99
2018-11-12T09:08:15.464Z,100377.13
2018-11-12T09:10:48.904Z,100364.27
2018-11-12T09:13:21.222Z,100371.77
2018-11-12T09:15:55.750Z,100369.10
2018-11-12T09:18:27.313Z,100379.25
2018-11-12T09:20:57.975Z,100370.70
2018-11-12T09:23:30.689Z,100365.59
2018-11-12T09:26:01.568Z,100363.45
2018-11-12T09:28:33.519Z,100367.99
2018-11-12T09:31:08.619Z,100357.28
2018-11-12T09:33:43.521Z,100352.45
2018-11-12T09:36:16.315Z,100349.73
2018-11-12T09:38:50.672Z,100358.80
2018-11-12T09:41:24.547Z,100333.81
2018-11-12T09:43:57.721Z,100332.58
2018-11-12T09:46:31.176Z,100350.42
2018-11-12T09:49:05.950Z,100334.10
2018-11-12T09:51:39.028Z,100324.30
2018-11-12T09:54:14.049Z,100325.29
2018-11-12T09:56:48.763Z,100316.27
2018-11-12T09:59:21.845Z,100350.61
2018-11-12T10:01:56.435Z,100315.72
2018-11-12T10:04:31.467Z,100305.86
2018-11-12T10:07:06.067Z,100298.80
2018-11-12T10:09:41.071Z,100289.94
2018-11-12T10:12:16.586Z,100294.35
2018-11-12T10:14:50.077Z,100291.94
2018-11-12T10:17:25.412Z,100308.98
2018-11-12T10:19:57.235Z,100300.94
2018-11-12T10:22:30.829Z,100313.39
2018-11-12T10:25:05.504Z,100288.55
2018-11-12T10:27:39.482Z,100286.55
2018-11-12T10:30:16.134Z,100279.27
2018-11-12T10:32:51.149Z,100281.27
2018-11-12T10:35:26.422Z,100272.92
2018-11-12T10:37:58.231Z,100285.01
2018-11-12T10:40:31.332Z,100280.28
2018-11-12T10:43:01.884Z,100284.80
2018-11-12T10:45:34.941Z,100275.52
2018-11-12T10:48:07.925Z,100275.69
2018-11-12T10:50:41.848Z,100274.50
2018-11-12T10:53:15.014Z,100272.36
2018-11-12T10:55:48.923Z,100281.55
2018-11-12T10:58:24.824Z,100296.01
2018-11-12T11:01:02.821Z,100276.41
2018-11-12T11:03:34.990Z,100270.13
2018-11-12T11:06:10.441Z,100267.64
2018-11-12T11:08:44.648Z,100269.02
2018-11-12T11:11:18.856Z,100276.98
2018-11-12T11:13:53.778Z,100272.36
2018-11-12T11:16:27.969Z,100269.55
2018-11-12T11:19:00.823Z,100268.31
2018-11-12T11:21:34.313Z,100269.51
2018-11-12T11:24:12.354Z,100257.62
2018-11-12T11:26:45.284Z,100272.49
2018-11-12T11:29:19.714Z,100278.31
2018-11-12T11:31:54.172Z,100270.63
2018-11-12T11:34:29.913Z,100273.97
2018-11-12T11:37:02.613Z,100269.69
2018-11-12T11:39:37.342Z,100271.10
2018-11-12T11:42:11.765Z,100275.61
2018-11-12T11:44:46.081Z,100277.66
2018-11-12T11:47:20.493Z,100260.83
2018-11-12T11:49:54.017Z,100255.02
2018-11-12T11:52:26.974Z,100263.26
2018-11-12T11:54:59.126Z,100276.81
2018-11-12T11:57:33.169Z,100282.07
2018-11-12T12:00:07.475Z,100266.97
2018-11-12T12:02:41.438Z,100273.42
2018-11-12T12:05:15.902Z,100285.80
2018-11-12T12:07:49.764Z,100269.26
2018-11-12T12:10:25.359Z,100261.55
2018-11-12T12:12:59.944Z,100283.83
2018-11-12T12:15:34.675Z,100270.22
2018-11-12T12:18:07.522Z,100268.88
2018-11-12T12:20:41.488Z,100257.48
2018-11-12T12:23:15.583Z,100282.47
2018-11-12T12:25:51.315Z,100284.27
2018-11-12T12:28:25.053Z,100278.63
2018-11-12T12:31:00.462Z,100282.86
2018-11-12T12:33:32.989Z,100272.42
2018-11-12T12:36:05.938Z,100283.34
2018-11-12T12:38:40.686Z,100278.47
2018-11-12T12:41:14.467Z,100277.30
2018-11-12T12:43:49.028Z,100268.63
2018-11-12T12:46:23.083Z,100267.75
2018-11-12T12:48:57.352Z,100281.34
2018-11-12T12:51:32.497Z,100313.84
2018-11-12T12:54:04.279Z,100281.27
2018-11-12T12:56:38.403Z,100287.15
2018-11-12T12:59:11.651Z,100296.40
2018-11-12T13:01:40.681Z,100284.13
2018-11-12T13:04:15.097Z,100285.94
2018-11-12T13:06:49.482Z,100290.03
2018-11-12T13:09:22.505Z,100278.75
2018-11-12T13:11:57.322Z,100266.67
2018-11-12T13:14:30.293Z,100275.13
2018-11-12T13:17:02.416Z,100285.97
2018-11-12T13:19:35.573Z,100272.75
2018-11-12T13:22:09.995Z,100265.14
2018-11-12T13:24:42.608Z,100280.28
2018-11-12T13:27:18.857Z,100267.61
2018-11-12T13:29:52.774Z,100260.31
2018-11-12T13:32:26.520Z,100273.05
2018-11-12T13:34:58.325Z,100261.34
2018-11-12T13:37:31.552Z,100274.05
2018-11-12T13:40:04.239Z,100271.80
2018-11-12T13:42:38.278Z,100274.81
2018-11-12T13:45:12.649Z,100269.52
2018-11-12T13:47:45.849Z,100275.67
2018-11-12T13:50:21.909Z,100280.33
2018-11-12T13:52:55.157Z,100285.66
2018-11-12T13:55:29.273Z,100281.22
2018-11-12T13:58:03.324Z,100280.19
2018-11-12T14:00:36.318Z,100293.29
2018-11-12T14:03:11.006Z,100289.52
2018-11-12T14:05:44.789Z,100308.09
2018-11-12T14:08:19.046Z,100302.91
2018-11-12T14:10:52.159Z,100289.89
2018-11-12T14:13:26.199Z,100311.09
2018-11-12T14:15:58.946Z,100294.11
2018-11-12T14:18:32.504Z,100308.28
2018-11-12T14:21:06.984Z,100311.58
2018-11-12T14:23:41.575Z,100313.03
2018-11-12T14:26:15.734Z,100308.45
2018-11-12T14:28:48.959Z,100299.14
2018-11-12T14:31:22.531Z,100311.45
2018-11-12T14:33:55.351Z,100308.92
2018-11-12T14:36:30.536Z,100317.97
2018-11-12T14:39:05.851Z,100328.00
2018-11-12T14:41:40.402Z,100324.85
2018-11-12T14:44:15.638Z,100328.08
2018-11-12T14:46:49.437Z,100329.72
2018-11-12T14:49:23.567Z,100349.37
2018-11-12T14:51:58.025Z,100331.16
2018-11-12T14:54:32.246Z,100337.38
2018-11-12T14:57:04.879Z,100334.42
2018-11-12T14:59:38.279Z,100330.42
2018-11-12T15:02:11.472Z,100338.50
2018-11-12T15:04:44.032Z,100335.55
2018-11-12T15:07:17.852Z,100342.81
2018-11-12T15:09:51.979Z,100341.78
2018-11-12T15:12:26.583Z,100343.13
2018-11-12T15:14:59.120Z,100351.17
2018-11-12T15:17:33.230Z,100337.51
2018-11-12T15:20:08.163Z,100339.41
2018-11-12T15:22:43.143Z,100349.33
2018-11-12T15:25:19.840Z,100347.73
2018-11-12T15:27:51.982Z,100347.48
2018-11-12T15:30:27.222Z,100360.89
2018-11-12T15:32:59.983Z,100366.00
2018-11-12T15:35:34.774Z,100359.05
2018-11-12T15:38:09.082Z,100356.91
2018-11-12T15:40:43.502Z,100366.83
2018-11-12T15:43:19.135Z,100370.88
2018-11-12T15:45:50.130Z,100359.09
2018-11-12T15:48:23.610Z,100378.95
2018-11-12T15:50:55.065Z,100374.66
2018-11-12T15:53:27.390Z,100373.31
2018-11-12T15:55:59.708Z,100371.44
2018-11-12T15:58:33.617Z,100377.89
2018-11-12T16:01:06.588Z,100382.72
2018-11-12T16:03:41.313Z,100376.02
2018-11-12T16:06:15.321Z,100372.55
2018-11-12T16:08:48.487Z,100372.80
2018-11-12T16:11:21.710Z,100369.59
2018-11-12T16:13:54.841Z,100370.13
2018-11-12T16:16:29.325Z,100370.66
2018-11-12T16:19:00.301Z,100363.16
2018-11-12T16:21:33.729Z,100379.75
2018-11-12T16:24:06.694Z,100393.97
2018-11-12T16:26:41.172Z,100388.06
2018-11-12T16:29:15.312Z,100388.88
2018-11-12T16:31:49.316Z,100379.77
2018-11-12T16:34:22.471Z,100380.81
2018-11-12T16:36:56.630Z,100381.34
2018-11-12T16:39:30.990Z,100373.84
2018-11-12T16:42:04.315Z,100374.39
2018-11-12T16:44:39.187Z,100365.53
2018-11-12T16:47:08.316Z,100376.55
2018-11-12T16:49:37.309Z,100386.98
2018-11-12T16:52:06.317Z,100390.75
2018-11-12T16:54:35.270Z,100392.09
2018-11-12T16:57:04.238Z,100391.02
2018-11-12T16:59:33.233Z,100396.92
2018-11-12T17:02:07.547Z,100408.19
2018-11-12T17:07:19.048Z,100407.09
2018-11-12T17:09:57.175Z,100409.52
2018-11-12T17:12:40.596Z,100416.20
2018-11-12T17:15:22.759Z,100407.64
2018-11-12T17:17:57.551Z,100409.77
2018-11-12T17:20:33.033Z,100409.52
2018-11-12T17:23:15.581Z,100416.22
2018-11-12T17:25:53.324Z,100421.30
2018-11-12T17:28:31.686Z,100425.33
2018-11-12T17:31:03.185Z,100412.19
2018-11-12T17:33:36.471Z,100409.25
2018-11-12T17:36:16.224Z,100417.29
2018-11-12T17:39:12.026Z,100415.41
2018-11-12T17:41:51.658Z,100420.77
2018-11-12T17:44:34.898Z,100425.84
2018-11-12T17:47:13.318Z,100433.63
2018-11-12T17:49:58.110Z,100429.62
2018-11-12T17:55:33.002Z,100454.01
2018-11-12T17:58:12.331Z,100460.70
2018-11-12T18:00:48.597Z,100449.20
2018-11-12T18:03:25.680Z,100447.86
2018-11-12T18:06:06.907Z,100441.14
2018-11-12T18:08:49.478Z,100443.00
2018-11-12T18:11:39.653Z,100433.39
2018-11-12T18:14:28.761Z,100438.19
2018-11-12T18:17:02.857Z,100443.81
2018-11-12T18:19:37.597Z,100429.33
2018-11-12T18:22:12.773Z,100428.83
2018-11-12T18:24:47.292Z,100426.66
2018-11-12T18:27:21.435Z,100423.18
2018-11-12T18:29:55.285Z,100430.96
2018-11-12T18:32:29.639Z,100418.36
2018-11-12T18:35:05.757Z,100418.11
2018-11-12T18:37:40.087Z,100422.92
2018-11-12T18:40:18.313Z,100438.70
2018-11-12T18:42:54.915Z,100430.14
2018-11-12T18:45:29.500Z,100433.93
2018-11-12T18:48:04.169Z,100446.24
2018-11-12T18:50:37.062Z,100443.04
2018-11-12T18:53:11.418Z,100452.13
2018-11-12T18:55:46.276Z,100446.23
2018-11-12T18:58:19.064Z,100459.11
2018-11-12T19:00:52.403Z,100444.89
2018-11-12T19:03:26.159Z,100447.31
2018-11-12T19:05:59.721Z,100455.61
2018-11-12T19:08:33.112Z,100447.87
2018-11-12T19:11:06.361Z,100450.52
2018-11-12T19:13:40.264Z,100448.13
2018-11-12T19:16:14.790Z,100448.92
2018-11-12T19:18:48.386Z,100452.14
2018-11-12T19:21:22.610Z,100459.90
2018-11-12T19:23:55.973Z,100451.59
2018-11-12T19:26:30.204Z,100453.22
2018-11-12T19:29:01.592Z,100452.69
2018-11-12T19:31:35.015Z,100460.19
2018-11-12T19:34:08.896Z,100459.08
2018-11-12T19:36:43.669Z,100468.72
2018-11-12T19:39:16.969Z,100477.83
2018-11-12T19:41:50.244Z,100469.80
2018-11-12T19:44:26.253Z,100468.71
2018-11-12T19:47:00.203Z,100475.16
2018-11-12T19:49:34.617Z,100470.34
2018-11-12T19:52:10.838Z,100464.69
2018-11-12T19:54:44.589Z,100468.71
2018-11-12T19:57:17.694Z,100463.64
2018-11-12T19:59:51.459Z,100463.64
2018-11-12T20:02:27.384Z,100469.00
2018-11-12T20:04:59.039Z,100477.58
2018-11-12T20:07:32.072Z,100482.66
2018-11-12T20:10:06.621Z,100484.79
2018-11-12T20:12:39.028Z,100502.48
2018-11-12T20:15:15.200Z,100486.92
2018-11-12T20:17:51.543Z,100472.73
2018-11-12T20:20:30.746Z,100475.67
2018-11-12T20:23:04.279Z,100497.39
2018-11-12T20:25:37.511Z,100501.66
2018-11-12T20:28:11.932Z,100494.71
2018-11-12T20:30:46.228Z,100493.09
2018-11-12T20:33:19.689Z,100494.71
2018-11-12T20:35:52.808Z,100498.44
2018-11-12T20:38:27.691Z,100493.63
2018-11-12T20:41:00.991Z,100501.13
2018-11-12T20:43:34.212Z,100503.55
2018-11-12T20:46:08.396Z,100498.73
2018-11-12T20:48:42.256Z,100509.44
2018-11-12T20:51:15.851Z,100509.98
2018-11-12T20:53:48.660Z,100503.55
2018-11-12T20:56:21.505Z,100503.00
2018-11-12T20:58:57.769Z,100514.25
2018-11-12T21:01:33.606Z,100509.16
2018-11-12T21:04:08.229Z,100514.25
2018-11-12T21:06:44.320Z,100517.19
2018-11-12T21:09:17.394Z,100512.12
2018-11-12T21:11:50.802Z,100514.80
2018-11-12T21:14:24.055Z,100501.66
2018-11-12T21:16:57.681Z,100513.45
2018-11-12T21:19:33.629Z,100506.22
2018-11-12T21:22:07.838Z,100501.41
2018-11-12T21:24:56.922Z,100495.25
2018-11-12T21:27:30.745Z,100490.69
2018-11-12T21:30:03.017Z,100493.37
2018-11-12T21:32:37.733Z,100483.98
2018-11-12T21:35:12.425Z,100479.45
2018-11-12T21:37:45.662Z,100476.52
2018-11-12T21:40:34.790Z,100469.02
2018-11-12T21:43:08.884Z,100477.85
2018-11-12T21:45:43.320Z,100491.27
2018-11-12T21:48:18.269Z,100489.39
2018-11-12T21:50:54.123Z,100481.34
2018-11-12T21:53:30.672Z,100487.25
2018-11-12T21:56:04.187Z,100481.88
2018-11-12T21:58:38.333Z,100476.24
2018-11-12T22:01:12.702Z,100478.12
2018-11-12T22:03:45.078Z,100468.20
2018-11-12T22:06:18.874Z,100473.02
2018-11-12T22:08:52.512Z,100476.25
2018-11-12T22:11:28.786Z,100477.59
2018-11-12T22:14:00.423Z,100477.05
2018-11-12T22:16:33.438Z,100481.61
2018-11-12T22:19:07.698Z,100477.59
2018-11-12T22:21:45.600Z,100481.06
2018-11-12T22:24:18.472Z,100492.61
2018-11-12T22:26:53.251Z,100486.96
2018-11-12T22:29:26.131Z,100486.45
2018-11-12T22:31:58.174Z,100488.84
2018-11-12T22:34:32.868Z,100482.42
2018-11-12T22:37:05.919Z,100482.69
2018-11-12T22:39:41.878Z,100499.30
2018-11-12T22:42:14.743Z,100490.45
2018-11-12T22:44:47.890Z,100488.55
2018-11-12T22:47:22.575Z,100495.78
2018-11-12T22:49:56.206Z,100501.95
2018-11-12T22:52:29.900Z,100500.87
2018-11-12T22:55:02.494Z,100497.92
2018-11-12T22:57:36.018Z,100498.46
2018-11-12T23:00:24.448Z,100491.47
2018-11-12T23:03:02.252Z,100498.72
2018-11-12T23:05:35.278Z,100497.11
2018-11-12T23:08:08.414Z,100499.00
2018-11-12T23:10:44.544Z,100493.34
2018-11-12T23:13:17.932Z,100500.33
2018-11-12T23:15:52.161Z,100495.23
2018-11-12T23:18:28.693Z,100495.50
2018-11-12T23:21:01.697Z,100498.46
2018-11-12T23:23:38.115Z,100496.02
2018-11-12T23:26:13.007Z,100502.47
2018-11-12T23:28:45.987Z,100490.66
2018-11-12T23:31:21.095Z,100483.70
2018-11-12T23:33:55.397Z,100483.94
2018-11-12T23:36:29.845Z,100486.36
2018-11-12T23:39:00.389Z,100480.47
2018-11-12T23:41:34.699Z,100479.38
2018-11-12T23:44:07.704Z,100487.45
2018-11-12T23:46:41.955Z,100481.83
2018-11-12T23:49:16.408Z,100481.83
2018-11-12T23:51:48.968Z,100483.16
2018-11-12T23:54:23.226Z,100478.06
2018-11-12T23:56:57.773Z,100479.97
2018-11-12T23:59:31.831Z,100475.16
